sensor_id;sensor_type;location;lat;lon;timestamp;P1;durP1;ratioP1;P2;durP2;ratioP2
49366;SDS011;35245;52.026;8.540;2023-05-21T00:00:49;7.53;;;5.20;;
49366;SDS011;35245;52.026;8.540;2023-05-21T00:03:17;8.45;;;5.93;;
49366;SDS011;35245;52.026;8.540;2023-05-21T00:05:45;7.20;;;5.60;;
49366;SDS011;35245;52.026;8.540;2023-05-21T00:08:14;8.27;;;6.00;;
49366;SDS011;35245;52.026;8.540;2023-05-21T00:10:42;10.40;;;5.80;;
49366;SDS011;35245;52.026;8.540;2023-05-21T00:13:09;7.60;;;4.65;;
49366;SDS011;35245;52.026;8.540;2023-05-21T00:15:36;7.78;;;5.57;;
49366;SDS011;35245;52.026;8.540;2023-05-21T00:18:03;7.22;;;5.60;;
49366;SDS011;35245;52.026;8.540;2023-05-21T00:20:30;7.05;;;5.38;;
49366;SDS011;35245;52.026;8.540;2023-05-21T00:22:57;7.35;;;5.65;;
49366;SDS011;35245;52.026;8.540;2023-05-21T00:25:26;7.82;;;5.93;;
49366;SDS011;35245;52.026;8.540;2023-05-21T00:27:55;13.35;;;5.95;;
49366;SDS011;35245;52.026;8.540;2023-05-21T00:30:22;8.73;;;6.03;;
49366;SDS011;35245;52.026;8.540;2023-05-21T00:32:49;7.65;;;5.78;;
49366;SDS011;35245;52.026;8.540;2023-05-21T00:35:16;8.50;;;6.13;;
49366;SDS011;35245;52.026;8.540;2023-05-21T00:37:43;8.70;;;5.82;;
49366;SDS011;35245;52.026;8.540;2023-05-21T00:40:11;9.57;;;6.38;;
49366;SDS011;35245;52.026;8.540;2023-05-21T00:42:38;8.20;;;5.95;;
49366;SDS011;35245;52.026;8.540;2023-05-21T00:45:07;8.13;;;6.03;;
49366;SDS011;35245;52.026;8.540;2023-05-21T00:47:34;9.50;;;6.20;;
49366;SDS011;35245;52.026;8.540;2023-05-21T00:50:01;8.75;;;5.65;;
49366;SDS011;35245;52.026;8.540;2023-05-21T00:52:29;7.60;;;5.70;;
49366;SDS011;35245;52.026;8.540;2023-05-21T00:54:56;9.10;;;6.43;;
49366;SDS011;35245;52.026;8.540;2023-05-21T00:57:24;7.70;;;5.63;;
49366;SDS011;35245;52.026;8.540;2023-05-21T00:59:52;6.78;;;5.60;;
49366;SDS011;35245;52.026;8.540;2023-05-21T01:02:21;8.90;;;5.85;;
49366;SDS011;35245;52.026;8.540;2023-05-21T01:04:50;8.50;;;5.63;;
49366;SDS011;35245;52.026;8.540;2023-05-21T01:07:19;8.38;;;6.07;;
49366;SDS011;35245;52.026;8.540;2023-05-21T01:09:46;8.20;;;6.28;;
49366;SDS011;35245;52.026;8.540;2023-05-21T01:12:13;9.10;;;6.05;;
49366;SDS011;35245;52.026;8.540;2023-05-21T01:14:40;8.57;;;6.40;;
49366;SDS011;35245;52.026;8.540;2023-05-21T01:17:07;7.55;;;6.18;;
49366;SDS011;35245;52.026;8.540;2023-05-21T01:19:36;9.15;;;6.47;;
49366;SDS011;35245;52.026;8.540;2023-05-21T01:22:04;8.20;;;6.45;;
49366;SDS011;35245;52.026;8.540;2023-05-21T01:24:33;8.00;;;6.30;;
49366;SDS011;35245;52.026;8.540;2023-05-21T01:27:00;10.60;;;6.82;;
49366;SDS011;35245;52.026;8.540;2023-05-21T01:29:30;8.68;;;6.80;;
49366;SDS011;35245;52.026;8.540;2023-05-21T01:31:58;11.05;;;6.75;;
49366;SDS011;35245;52.026;8.540;2023-05-21T01:34:31;7.88;;;6.88;;
49366;SDS011;35245;52.026;8.540;2023-05-21T01:37:06;8.77;;;6.10;;
49366;SDS011;35245;52.026;8.540;2023-05-21T01:39:38;10.32;;;6.63;;
49366;SDS011;35245;52.026;8.540;2023-05-21T01:42:09;9.07;;;6.85;;
49366;SDS011;35245;52.026;8.540;2023-05-21T01:44:37;9.05;;;6.15;;
49366;SDS011;35245;52.026;8.540;2023-05-21T01:47:05;8.85;;;6.53;;
49366;SDS011;35245;52.026;8.540;2023-05-21T01:49:32;8.20;;;6.00;;
49366;SDS011;35245;52.026;8.540;2023-05-21T01:51:59;9.65;;;7.22;;
49366;SDS011;35245;52.026;8.540;2023-05-21T01:54:26;10.35;;;6.03;;
49366;SDS011;35245;52.026;8.540;2023-05-21T01:56:55;8.68;;;6.80;;
49366;SDS011;35245;52.026;8.540;2023-05-21T01:59:22;11.23;;;6.80;;
49366;SDS011;35245;52.026;8.540;2023-05-21T02:01:49;8.85;;;7.18;;
49366;SDS011;35245;52.026;8.540;2023-05-21T02:04:15;9.90;;;7.13;;
49366;SDS011;35245;52.026;8.540;2023-05-21T02:06:42;8.25;;;6.30;;
49366;SDS011;35245;52.026;8.540;2023-05-21T02:09:09;9.07;;;6.78;;
49366;SDS011;35245;52.026;8.540;2023-05-21T02:11:36;8.35;;;6.55;;
49366;SDS011;35245;52.026;8.540;2023-05-21T02:14:04;10.35;;;7.00;;
49366;SDS011;35245;52.026;8.540;2023-05-21T02:16:34;7.43;;;6.25;;
49366;SDS011;35245;52.026;8.540;2023-05-21T02:19:02;9.85;;;7.50;;
49366;SDS011;35245;52.026;8.540;2023-05-21T02:21:29;9.57;;;6.55;;
49366;SDS011;35245;52.026;8.540;2023-05-21T02:23:56;9.25;;;6.72;;
49366;SDS011;35245;52.026;8.540;2023-05-21T02:26:23;9.07;;;6.15;;
49366;SDS011;35245;52.026;8.540;2023-05-21T02:28:49;8.27;;;6.75;;
49366;SDS011;35245;52.026;8.540;2023-05-21T02:31:18;9.57;;;6.93;;
49366;SDS011;35245;52.026;8.540;2023-05-21T02:33:45;8.75;;;7.22;;
49366;SDS011;35245;52.026;8.540;2023-05-21T02:36:12;7.75;;;6.55;;
49366;SDS011;35245;52.026;8.540;2023-05-21T02:38:39;12.07;;;6.82;;
49366;SDS011;35245;52.026;8.540;2023-05-21T02:41:08;9.80;;;6.50;;
49366;SDS011;35245;52.026;8.540;2023-05-21T02:43:35;9.02;;;6.55;;
49366;SDS011;35245;52.026;8.540;2023-05-21T02:46:04;8.40;;;6.90;;
49366;SDS011;35245;52.026;8.540;2023-05-21T02:48:33;10.05;;;6.78;;
49366;SDS011;35245;52.026;8.540;2023-05-21T02:51:00;8.55;;;6.60;;
49366;SDS011;35245;52.026;8.540;2023-05-21T02:53:26;9.45;;;6.57;;
49366;SDS011;35245;52.026;8.540;2023-05-21T02:55:53;8.90;;;6.32;;
49366;SDS011;35245;52.026;8.540;2023-05-21T02:58:20;8.18;;;6.40;;
49366;SDS011;35245;52.026;8.540;2023-05-21T03:00:49;10.77;;;7.25;;
49366;SDS011;35245;52.026;8.540;2023-05-21T03:03:16;9.35;;;7.30;;
49366;SDS011;35245;52.026;8.540;2023-05-21T03:05:45;10.98;;;6.72;;
49366;SDS011;35245;52.026;8.540;2023-05-21T03:08:12;12.30;;;7.47;;
49366;SDS011;35245;52.026;8.540;2023-05-21T03:10:39;9.88;;;7.45;;
49366;SDS011;35245;52.026;8.540;2023-05-21T03:13:06;9.77;;;7.20;;
49366;SDS011;35245;52.026;8.540;2023-05-21T03:15:32;11.20;;;7.63;;
49366;SDS011;35245;52.026;8.540;2023-05-21T03:17:59;8.50;;;6.90;;
49366;SDS011;35245;52.026;8.540;2023-05-21T03:20:26;10.38;;;7.53;;
49366;SDS011;35245;52.026;8.540;2023-05-21T03:22:55;9.07;;;7.05;;
49366;SDS011;35245;52.026;8.540;2023-05-21T03:25:22;12.27;;;7.55;;
49366;SDS011;35245;52.026;8.540;2023-05-21T03:27:49;9.57;;;6.90;;
49366;SDS011;35245;52.026;8.540;2023-05-21T03:30:17;9.52;;;7.20;;
49366;SDS011;35245;52.026;8.540;2023-05-21T03:32:44;8.52;;;6.78;;
49366;SDS011;35245;52.026;8.540;2023-05-21T03:35:11;11.73;;;8.35;;
49366;SDS011;35245;52.026;8.540;2023-05-21T03:37:38;12.57;;;7.50;;
49366;SDS011;35245;52.026;8.540;2023-05-21T03:40:07;9.73;;;7.20;;
49366;SDS011;35245;52.026;8.540;2023-05-21T03:42:35;8.55;;;7.32;;
49366;SDS011;35245;52.026;8.540;2023-05-21T03:45:01;10.40;;;7.18;;
49366;SDS011;35245;52.026;8.540;2023-05-21T03:47:28;8.60;;;6.70;;
49366;SDS011;35245;52.026;8.540;2023-05-21T03:49:55;8.45;;;6.40;;
49366;SDS011;35245;52.026;8.540;2023-05-21T03:52:22;10.13;;;7.30;;
49366;SDS011;35245;52.026;8.540;2023-05-21T03:54:49;9.02;;;7.03;;
49366;SDS011;35245;52.026;8.540;2023-05-21T03:57:18;9.82;;;7.72;;
49366;SDS011;35245;52.026;8.540;2023-05-21T03:59:44;8.88;;;6.82;;
49366;SDS011;35245;52.026;8.540;2023-05-21T04:02:11;9.90;;;7.32;;
49366;SDS011;35245;52.026;8.540;2023-05-21T04:04:38;9.10;;;6.90;;
49366;SDS011;35245;52.026;8.540;2023-05-21T04:07:05;9.15;;;6.82;;
49366;SDS011;35245;52.026;8.540;2023-05-21T04:09:38;9.48;;;6.68;;
49366;SDS011;35245;52.026;8.540;2023-05-21T04:12:05;9.35;;;6.68;;
49366;SDS011;35245;52.026;8.540;2023-05-21T04:14:34;9.02;;;6.72;;
49366;SDS011;35245;52.026;8.540;2023-05-21T04:17:02;10.55;;;7.60;;
49366;SDS011;35245;52.026;8.540;2023-05-21T04:19:29;9.70;;;6.65;;
49366;SDS011;35245;52.026;8.540;2023-05-21T04:21:56;7.57;;;6.25;;
49366;SDS011;35245;52.026;8.540;2023-05-21T04:24:23;10.30;;;7.40;;
49366;SDS011;35245;52.026;8.540;2023-05-21T04:26:50;14.27;;;8.00;;
49366;SDS011;35245;52.026;8.540;2023-05-21T04:29:17;9.48;;;7.10;;
49366;SDS011;35245;52.026;8.540;2023-05-21T04:31:46;11.82;;;7.30;;
49366;SDS011;35245;52.026;8.540;2023-05-21T04:34:13;11.23;;;8.07;;
49366;SDS011;35245;52.026;8.540;2023-05-21T04:36:42;8.25;;;6.60;;
49366;SDS011;35245;52.026;8.540;2023-05-21T04:39:09;9.25;;;6.95;;
49366;SDS011;35245;52.026;8.540;2023-05-21T04:41:36;10.32;;;7.80;;
49366;SDS011;35245;52.026;8.540;2023-05-21T04:44:03;9.55;;;6.93;;
49366;SDS011;35245;52.026;8.540;2023-05-21T04:46:32;10.82;;;7.07;;
49366;SDS011;35245;52.026;8.540;2023-05-21T04:49:01;10.13;;;7.13;;
49366;SDS011;35245;52.026;8.540;2023-05-21T04:51:28;10.18;;;6.82;;
49366;SDS011;35245;52.026;8.540;2023-05-21T04:53:55;9.27;;;7.15;;
49366;SDS011;35245;52.026;8.540;2023-05-21T04:56:22;8.88;;;6.75;;
49366;SDS011;35245;52.026;8.540;2023-05-21T04:58:50;8.93;;;6.97;;
49366;SDS011;35245;52.026;8.540;2023-05-21T05:01:18;10.68;;;7.88;;
49366;SDS011;35245;52.026;8.540;2023-05-21T05:03:46;9.07;;;7.20;;
49366;SDS011;35245;52.026;8.540;2023-05-21T05:06:15;10.95;;;7.32;;
49366;SDS011;35245;52.026;8.540;2023-05-21T05:08:42;10.35;;;7.10;;
49366;SDS011;35245;52.026;8.540;2023-05-21T05:11:10;12.02;;;8.02;;
49366;SDS011;35245;52.026;8.540;2023-05-21T05:13:37;12.38;;;7.82;;
49366;SDS011;35245;52.026;8.540;2023-05-21T05:16:04;13.93;;;7.43;;
49366;SDS011;35245;52.026;8.540;2023-05-21T05:18:32;15.10;;;7.55;;
49366;SDS011;35245;52.026;8.540;2023-05-21T05:20:59;9.93;;;7.45;;
49366;SDS011;35245;52.026;8.540;2023-05-21T05:23:27;9.45;;;7.65;;
49366;SDS011;35245;52.026;8.540;2023-05-21T05:25:54;8.80;;;6.75;;
49366;SDS011;35245;52.026;8.540;2023-05-21T05:28:21;11.45;;;7.72;;
49366;SDS011;35245;52.026;8.540;2023-05-21T05:30:48;11.27;;;7.55;;
49366;SDS011;35245;52.026;8.540;2023-05-21T05:33:15;10.43;;;7.25;;
49366;SDS011;35245;52.026;8.540;2023-05-21T05:35:42;10.23;;;7.80;;
49366;SDS011;35245;52.026;8.540;2023-05-21T05:38:09;9.98;;;7.50;;
49366;SDS011;35245;52.026;8.540;2023-05-21T05:40:37;10.65;;;7.45;;
49366;SDS011;35245;52.026;8.540;2023-05-21T05:43:04;11.25;;;7.55;;
49366;SDS011;35245;52.026;8.540;2023-05-21T05:45:31;12.27;;;7.40;;
49366;SDS011;35245;52.026;8.540;2023-05-21T05:47:58;10.07;;;7.68;;
49366;SDS011;35245;52.026;8.540;2023-05-21T05:50:25;9.02;;;7.07;;
49366;SDS011;35245;52.026;8.540;2023-05-21T05:52:52;10.55;;;7.57;;
49366;SDS011;35245;52.026;8.540;2023-05-21T05:55:19;11.10;;;8.15;;
49366;SDS011;35245;52.026;8.540;2023-05-21T05:57:48;9.27;;;7.15;;
49366;SDS011;35245;52.026;8.540;2023-05-21T06:00:15;9.48;;;6.90;;
49366;SDS011;35245;52.026;8.540;2023-05-21T06:02:42;10.18;;;6.72;;
49366;SDS011;35245;52.026;8.540;2023-05-21T06:05:09;10.77;;;7.28;;
49366;SDS011;35245;52.026;8.540;2023-05-21T06:07:36;9.98;;;7.38;;
49366;SDS011;35245;52.026;8.540;2023-05-21T06:10:04;10.95;;;7.50;;
49366;SDS011;35245;52.026;8.540;2023-05-21T06:12:31;9.23;;;7.55;;
49366;SDS011;35245;52.026;8.540;2023-05-21T06:14:59;10.32;;;7.32;;
49366;SDS011;35245;52.026;8.540;2023-05-21T06:17:27;10.98;;;8.23;;
49366;SDS011;35245;52.026;8.540;2023-05-21T06:19:53;9.88;;;6.80;;
49366;SDS011;35245;52.026;8.540;2023-05-21T06:22:21;10.45;;;7.88;;
49366;SDS011;35245;52.026;8.540;2023-05-21T06:24:48;11.18;;;7.18;;
49366;SDS011;35245;52.026;8.540;2023-05-21T06:27:15;10.35;;;6.65;;
49366;SDS011;35245;52.026;8.540;2023-05-21T06:29:42;11.23;;;6.95;;
49366;SDS011;35245;52.026;8.540;2023-05-21T06:32:11;11.07;;;6.65;;
49366;SDS011;35245;52.026;8.540;2023-05-21T06:34:37;10.75;;;7.40;;
49366;SDS011;35245;52.026;8.540;2023-05-21T06:37:05;11.95;;;6.78;;
49366;SDS011;35245;52.026;8.540;2023-05-21T06:39:31;10.18;;;7.20;;
49366;SDS011;35245;52.026;8.540;2023-05-21T06:41:58;10.27;;;6.90;;
49366;SDS011;35245;52.026;8.540;2023-05-21T06:44:25;9.38;;;6.80;;
49366;SDS011;35245;52.026;8.540;2023-05-21T06:46:52;9.85;;;7.05;;
49366;SDS011;35245;52.026;8.540;2023-05-21T06:49:20;11.48;;;7.28;;
49366;SDS011;35245;52.026;8.540;2023-05-21T06:51:47;11.15;;;7.78;;
49366;SDS011;35245;52.026;8.540;2023-05-21T06:54:14;9.30;;;7.18;;
49366;SDS011;35245;52.026;8.540;2023-05-21T06:56:41;11.32;;;7.53;;
49366;SDS011;35245;52.026;8.540;2023-05-21T06:59:08;8.80;;;6.90;;
49366;SDS011;35245;52.026;8.540;2023-05-21T07:01:35;11.77;;;7.57;;
49366;SDS011;35245;52.026;8.540;2023-05-21T07:04:02;10.70;;;7.55;;
49366;SDS011;35245;52.026;8.540;2023-05-21T07:06:31;11.35;;;7.60;;
49366;SDS011;35245;52.026;8.540;2023-05-21T07:08:58;12.50;;;7.78;;
49366;SDS011;35245;52.026;8.540;2023-05-21T07:11:25;10.10;;;7.75;;
49366;SDS011;35245;52.026;8.540;2023-05-21T07:13:53;10.50;;;7.03;;
49366;SDS011;35245;52.026;8.540;2023-05-21T07:16:21;10.48;;;7.38;;
49366;SDS011;35245;52.026;8.540;2023-05-21T07:18:48;11.48;;;7.85;;
49366;SDS011;35245;52.026;8.540;2023-05-21T07:21:15;11.00;;;7.43;;
49366;SDS011;35245;52.026;8.540;2023-05-21T07:23:44;11.73;;;7.07;;
49366;SDS011;35245;52.026;8.540;2023-05-21T07:26:11;10.32;;;7.10;;
49366;SDS011;35245;52.026;8.540;2023-05-21T07:28:37;10.48;;;7.78;;
49366;SDS011;35245;52.026;8.540;2023-05-21T07:31:04;13.15;;;9.00;;
49366;SDS011;35245;52.026;8.540;2023-05-21T07:33:32;11.43;;;7.35;;
49366;SDS011;35245;52.026;8.540;2023-05-21T07:35:59;9.93;;;7.20;;
49366;SDS011;35245;52.026;8.540;2023-05-21T07:38:26;11.50;;;7.93;;
49366;SDS011;35245;52.026;8.540;2023-05-21T07:40:54;9.73;;;7.35;;
49366;SDS011;35245;52.026;8.540;2023-05-21T07:43:21;14.60;;;8.10;;
49366;SDS011;35245;52.026;8.540;2023-05-21T07:45:48;10.43;;;7.65;;
49366;SDS011;35245;52.026;8.540;2023-05-21T07:48:16;9.52;;;7.10;;
49366;SDS011;35245;52.026;8.540;2023-05-21T07:50:43;10.40;;;7.32;;
49366;SDS011;35245;52.026;8.540;2023-05-21T07:53:13;11.32;;;7.30;;
49366;SDS011;35245;52.026;8.540;2023-05-21T07:55:40;13.30;;;9.38;;
49366;SDS011;35245;52.026;8.540;2023-05-21T07:58:13;10.55;;;8.15;;
49366;SDS011;35245;52.026;8.540;2023-05-21T08:00:43;12.40;;;8.68;;
49366;SDS011;35245;52.026;8.540;2023-05-21T08:03:12;11.30;;;9.18;;
49366;SDS011;35245;52.026;8.540;2023-05-21T08:05:40;11.75;;;8.20;;
49366;SDS011;35245;52.026;8.540;2023-05-21T08:08:08;10.70;;;8.63;;
49366;SDS011;35245;52.026;8.540;2023-05-21T08:10:36;14.00;;;8.65;;
49366;SDS011;35245;52.026;8.540;2023-05-21T08:13:03;10.98;;;7.55;;
49366;SDS011;35245;52.026;8.540;2023-05-21T08:15:32;10.93;;;7.47;;
49366;SDS011;35245;52.026;8.540;2023-05-21T08:17:59;10.75;;;8.63;;
49366;SDS011;35245;52.026;8.540;2023-05-21T08:20:26;9.18;;;7.43;;
49366;SDS011;35245;52.026;8.540;2023-05-21T08:22:54;13.80;;;8.73;;
49366;SDS011;35245;52.026;8.540;2023-05-21T08:25:22;14.30;;;9.27;;
49366;SDS011;35245;52.026;8.540;2023-05-21T08:27:49;11.65;;;8.80;;
49366;SDS011;35245;52.026;8.540;2023-05-21T08:30:16;11.90;;;8.50;;
49366;SDS011;35245;52.026;8.540;2023-05-21T08:32:44;11.63;;;8.60;;
49366;SDS011;35245;52.026;8.540;2023-05-21T08:35:12;11.63;;;8.65;;
49366;SDS011;35245;52.026;8.540;2023-05-21T08:37:39;10.82;;;8.38;;
49366;SDS011;35245;52.026;8.540;2023-05-21T08:40:06;10.32;;;8.18;;
49366;SDS011;35245;52.026;8.540;2023-05-21T08:42:36;9.77;;;8.02;;
49366;SDS011;35245;52.026;8.540;2023-05-21T08:45:05;10.52;;;8.75;;
49366;SDS011;35245;52.026;8.540;2023-05-21T08:47:34;10.40;;;8.30;;
49366;SDS011;35245;52.026;8.540;2023-05-21T08:50:03;11.65;;;7.88;;
49366;SDS011;35245;52.026;8.540;2023-05-21T08:52:31;11.85;;;8.32;;
49366;SDS011;35245;52.026;8.540;2023-05-21T08:54:58;10.93;;;8.18;;
49366;SDS011;35245;52.026;8.540;2023-05-21T08:57:25;15.07;;;9.48;;
49366;SDS011;35245;52.026;8.540;2023-05-21T08:59:53;11.73;;;8.57;;
49366;SDS011;35245;52.026;8.540;2023-05-21T09:02:20;12.50;;;9.00;;
49366;SDS011;35245;52.026;8.540;2023-05-21T09:04:49;11.60;;;8.63;;
49366;SDS011;35245;52.026;8.540;2023-05-21T09:07:22;11.35;;;8.85;;
49366;SDS011;35245;52.026;8.540;2023-05-21T09:09:53;9.95;;;7.72;;
49366;SDS011;35245;52.026;8.540;2023-05-21T09:12:21;12.65;;;9.35;;
49366;SDS011;35245;52.026;8.540;2023-05-21T09:14:48;9.70;;;7.95;;
49366;SDS011;35245;52.026;8.540;2023-05-21T09:17:15;12.65;;;8.70;;
49366;SDS011;35245;52.026;8.540;2023-05-21T09:22:40;12.50;;;9.63;;
49366;SDS011;35245;52.026;8.540;2023-05-21T09:25:08;12.73;;;9.93;;
49366;SDS011;35245;52.026;8.540;2023-05-21T09:27:35;11.73;;;9.70;;
49366;SDS011;35245;52.026;8.540;2023-05-21T09:30:02;10.65;;;8.43;;
49366;SDS011;35245;52.026;8.540;2023-05-21T09:32:31;10.63;;;9.23;;
49366;SDS011;35245;52.026;8.540;2023-05-21T09:35:02;15.60;;;10.68;;
49366;SDS011;35245;52.026;8.540;2023-05-21T09:37:35;14.32;;;10.32;;
49366;SDS011;35245;52.026;8.540;2023-05-21T09:40:09;11.45;;;9.05;;
49366;SDS011;35245;52.026;8.540;2023-05-21T09:42:37;13.52;;;9.93;;
49366;SDS011;35245;52.026;8.540;2023-05-21T09:45:05;12.30;;;9.25;;
49366;SDS011;35245;52.026;8.540;2023-05-21T09:47:33;13.60;;;10.25;;
49366;SDS011;35245;52.026;8.540;2023-05-21T09:49:59;13.18;;;9.80;;
49366;SDS011;35245;52.026;8.540;2023-05-21T09:52:26;11.45;;;9.95;;
49366;SDS011;35245;52.026;8.540;2023-05-21T09:54:54;13.18;;;10.23;;
49366;SDS011;35245;52.026;8.540;2023-05-21T09:57:25;13.82;;;10.07;;
49366;SDS011;35245;52.026;8.540;2023-05-21T09:59:52;14.82;;;10.27;;
49366;SDS011;35245;52.026;8.540;2023-05-21T10:02:20;13.75;;;10.43;;
49366;SDS011;35245;52.026;8.540;2023-05-21T10:04:48;12.77;;;10.35;;
49366;SDS011;35245;52.026;8.540;2023-05-21T10:07:16;13.77;;;10.68;;
49366;SDS011;35245;52.026;8.540;2023-05-21T10:09:46;14.38;;;11.02;;
49366;SDS011;35245;52.026;8.540;2023-05-21T10:12:14;12.13;;;9.80;;
49366;SDS011;35245;52.026;8.540;2023-05-21T10:14:45;11.18;;;9.48;;
49366;SDS011;35245;52.026;8.540;2023-05-21T10:17:17;13.88;;;10.30;;
49366;SDS011;35245;52.026;8.540;2023-05-21T10:19:44;13.68;;;10.10;;
49366;SDS011;35245;52.026;8.540;2023-05-21T10:22:12;15.70;;;10.75;;
49366;SDS011;35245;52.026;8.540;2023-05-21T10:24:40;13.35;;;9.98;;
49366;SDS011;35245;52.026;8.540;2023-05-21T10:27:09;13.38;;;10.20;;
49366;SDS011;35245;52.026;8.540;2023-05-21T10:29:37;12.25;;;9.77;;
49366;SDS011;35245;52.026;8.540;2023-05-21T10:32:07;14.52;;;10.70;;
49366;SDS011;35245;52.026;8.540;2023-05-21T10:34:35;17.77;;;10.77;;
49366;SDS011;35245;52.026;8.540;2023-05-21T10:37:03;14.65;;;10.48;;
49366;SDS011;35245;52.026;8.540;2023-05-21T10:39:33;16.00;;;10.77;;
49366;SDS011;35245;52.026;8.540;2023-05-21T10:42:03;14.25;;;10.13;;
49366;SDS011;35245;52.026;8.540;2023-05-21T10:44:39;15.07;;;10.93;;
49366;SDS011;35245;52.026;8.540;2023-05-21T10:47:26;16.20;;;10.32;;
49366;SDS011;35245;52.026;8.540;2023-05-21T10:53:06;15.45;;;11.10;;
49366;SDS011;35245;52.026;8.540;2023-05-21T10:55:37;15.15;;;9.90;;
49366;SDS011;35245;52.026;8.540;2023-05-21T10:58:20;13.40;;;9.93;;
49366;SDS011;35245;52.026;8.540;2023-05-21T11:00:55;14.38;;;11.57;;
49366;SDS011;35245;52.026;8.540;2023-05-21T11:03:24;15.68;;;11.93;;
49366;SDS011;35245;52.026;8.540;2023-05-21T11:05:52;14.82;;;12.60;;
49366;SDS011;35245;52.026;8.540;2023-05-21T11:08:20;15.15;;;11.70;;
49366;SDS011;35245;52.026;8.540;2023-05-21T11:10:51;14.55;;;10.93;;
49366;SDS011;35245;52.026;8.540;2023-05-21T11:13:19;11.30;;;9.52;;
49366;SDS011;35245;52.026;8.540;2023-05-21T11:16:05;13.27;;;9.95;;
49366;SDS011;35245;52.026;8.540;2023-05-21T11:21:25;16.23;;;11.47;;
49366;SDS011;35245;52.026;8.540;2023-05-21T11:23:55;15.10;;;11.25;;
49366;SDS011;35245;52.026;8.540;2023-05-21T11:26:27;14.15;;;11.82;;
49366;SDS011;35245;52.026;8.540;2023-05-21T11:29:07;15.20;;;10.85;;
49366;SDS011;35245;52.026;8.540;2023-05-21T11:31:34;17.00;;;11.18;;
49366;SDS011;35245;52.026;8.540;2023-05-21T11:34:13;16.50;;;10.35;;
49366;SDS011;35245;52.026;8.540;2023-05-21T11:36:43;17.90;;;11.82;;
49366;SDS011;35245;52.026;8.540;2023-05-21T11:39:10;15.98;;;11.05;;
49366;SDS011;35245;52.026;8.540;2023-05-21T11:41:48;15.63;;;10.45;;
49366;SDS011;35245;52.026;8.540;2023-05-21T11:44:16;13.32;;;11.15;;
49366;SDS011;35245;52.026;8.540;2023-05-21T11:46:43;19.25;;;11.25;;
49366;SDS011;35245;52.026;8.540;2023-05-21T11:49:12;16.95;;;11.27;;
49366;SDS011;35245;52.026;8.540;2023-05-21T11:51:41;14.13;;;11.00;;
49366;SDS011;35245;52.026;8.540;2023-05-21T11:54:08;15.68;;;11.18;;
49366;SDS011;35245;52.026;8.540;2023-05-21T11:56:36;17.63;;;11.35;;
49366;SDS011;35245;52.026;8.540;2023-05-21T11:59:12;13.98;;;11.27;;
49366;SDS011;35245;52.026;8.540;2023-05-21T12:01:40;15.50;;;10.63;;
49366;SDS011;35245;52.026;8.540;2023-05-21T12:04:08;14.07;;;11.18;;
49366;SDS011;35245;52.026;8.540;2023-05-21T12:06:37;12.32;;;11.02;;
49366;SDS011;35245;52.026;8.540;2023-05-21T12:09:07;12.35;;;11.02;;
49366;SDS011;35245;52.026;8.540;2023-05-21T12:11:35;13.65;;;11.93;;
49366;SDS011;35245;52.026;8.540;2023-05-21T12:14:05;13.52;;;10.77;;
49366;SDS011;35245;52.026;8.540;2023-05-21T12:16:33;14.38;;;11.10;;
49366;SDS011;35245;52.026;8.540;2023-05-21T12:19:01;15.30;;;10.95;;
49366;SDS011;35245;52.026;8.540;2023-05-21T12:21:28;12.73;;;11.10;;
49366;SDS011;35245;52.026;8.540;2023-05-21T12:23:57;13.10;;;11.30;;
49366;SDS011;35245;52.026;8.540;2023-05-21T12:26:24;13.23;;;11.52;;
49366;SDS011;35245;52.026;8.540;2023-05-21T12:28:52;13.43;;;10.98;;
49366;SDS011;35245;52.026;8.540;2023-05-21T12:31:19;13.02;;;11.27;;
49366;SDS011;35245;52.026;8.540;2023-05-21T12:33:47;12.45;;;11.15;;
49366;SDS011;35245;52.026;8.540;2023-05-21T12:36:20;13.50;;;10.10;;
49366;SDS011;35245;52.026;8.540;2023-05-21T12:38:48;22.52;;;19.98;;
49366;SDS011;35245;52.026;8.540;2023-05-21T12:41:17;14.15;;;11.07;;
49366;SDS011;35245;52.026;8.540;2023-05-21T12:43:45;12.18;;;10.65;;
49366;SDS011;35245;52.026;8.540;2023-05-21T12:46:12;12.40;;;11.10;;
49366;SDS011;35245;52.026;8.540;2023-05-21T12:48:46;12.45;;;11.07;;
49366;SDS011;35245;52.026;8.540;2023-05-21T12:51:15;14.95;;;11.25;;
49366;SDS011;35245;52.026;8.540;2023-05-21T12:53:42;13.52;;;11.43;;
49366;SDS011;35245;52.026;8.540;2023-05-21T12:56:09;14.48;;;11.65;;
49366;SDS011;35245;52.026;8.540;2023-05-21T12:58:37;12.20;;;10.32;;
49366;SDS011;35245;52.026;8.540;2023-05-21T13:01:05;12.27;;;10.98;;
49366;SDS011;35245;52.026;8.540;2023-05-21T13:03:32;12.52;;;10.23;;
49366;SDS011;35245;52.026;8.540;2023-05-21T13:06:00;13.40;;;10.68;;
49366;SDS011;35245;52.026;8.540;2023-05-21T13:08:27;12.15;;;10.85;;
49366;SDS011;35245;52.026;8.540;2023-05-21T13:10:54;12.10;;;10.70;;
49366;SDS011;35245;52.026;8.540;2023-05-21T13:13:21;13.38;;;10.70;;
49366;SDS011;35245;52.026;8.540;2023-05-21T13:15:49;11.95;;;10.75;;
49366;SDS011;35245;52.026;8.540;2023-05-21T13:18:16;14.05;;;10.90;;
49366;SDS011;35245;52.026;8.540;2023-05-21T13:20:44;13.23;;;11.20;;
49366;SDS011;35245;52.026;8.540;2023-05-21T13:23:13;12.30;;;10.80;;
49366;SDS011;35245;52.026;8.540;2023-05-21T13:25:40;13.30;;;10.60;;
49366;SDS011;35245;52.026;8.540;2023-05-21T13:28:07;13.15;;;10.18;;
49366;SDS011;35245;52.026;8.540;2023-05-21T13:30:39;12.35;;;10.18;;
49366;SDS011;35245;52.026;8.540;2023-05-21T13:33:07;12.50;;;11.20;;
49366;SDS011;35245;52.026;8.540;2023-05-21T13:35:34;11.50;;;9.73;;
49366;SDS011;35245;52.026;8.540;2023-05-21T13:38:01;12.95;;;10.65;;
49366;SDS011;35245;52.026;8.540;2023-05-21T13:40:28;11.82;;;10.55;;
49366;SDS011;35245;52.026;8.540;2023-05-21T13:42:55;11.57;;;9.75;;
49366;SDS011;35245;52.026;8.540;2023-05-21T13:45:22;11.50;;;9.52;;
49366;SDS011;35245;52.026;8.540;2023-05-21T13:47:53;13.15;;;11.38;;
49366;SDS011;35245;52.026;8.540;2023-05-21T13:50:21;10.80;;;9.70;;
49366;SDS011;35245;52.026;8.540;2023-05-21T13:52:48;12.13;;;10.20;;
49366;SDS011;35245;52.026;8.540;2023-05-21T13:55:15;12.70;;;11.38;;
49366;SDS011;35245;52.026;8.540;2023-05-21T13:57:43;12.45;;;11.15;;
49366;SDS011;35245;52.026;8.540;2023-05-21T14:00:11;13.18;;;11.30;;
49366;SDS011;35245;52.026;8.540;2023-05-21T14:02:40;13.23;;;11.20;;
49366;SDS011;35245;52.026;8.540;2023-05-21T14:05:07;13.80;;;10.90;;
49366;SDS011;35245;52.026;8.540;2023-05-21T14:07:36;15.25;;;11.00;;
49366;SDS011;35245;52.026;8.540;2023-05-21T14:10:04;13.20;;;10.55;;
49366;SDS011;35245;52.026;8.540;2023-05-21T14:12:31;14.35;;;11.00;;
49366;SDS011;35245;52.026;8.540;2023-05-21T14:14:58;13.95;;;11.57;;
49366;SDS011;35245;52.026;8.540;2023-05-21T14:17:25;13.88;;;11.20;;
49366;SDS011;35245;52.026;8.540;2023-05-21T14:19:52;16.90;;;10.98;;
49366;SDS011;35245;52.026;8.540;2023-05-21T14:22:20;13.18;;;11.50;;
49366;SDS011;35245;52.026;8.540;2023-05-21T14:24:48;12.13;;;10.88;;
49366;SDS011;35245;52.026;8.540;2023-05-21T14:27:15;13.43;;;11.52;;
49366;SDS011;35245;52.026;8.540;2023-05-21T14:29:42;12.82;;;11.00;;
49366;SDS011;35245;52.026;8.540;2023-05-21T14:32:09;13.40;;;12.02;;
49366;SDS011;35245;52.026;8.540;2023-05-21T14:34:36;12.95;;;11.60;;
49366;SDS011;35245;52.026;8.540;2023-05-21T14:37:04;13.25;;;11.65;;
49366;SDS011;35245;52.026;8.540;2023-05-21T14:39:31;14.98;;;12.15;;
49366;SDS011;35245;52.026;8.540;2023-05-21T14:42:00;14.32;;;11.50;;
49366;SDS011;35245;52.026;8.540;2023-05-21T14:44:28;11.93;;;10.73;;
49366;SDS011;35245;52.026;8.540;2023-05-21T14:46:56;13.70;;;12.13;;
49366;SDS011;35245;52.026;8.540;2023-05-21T14:49:23;14.38;;;12.35;;